sensor_id;sensor_type;location;lat;lon;timestamp;pressure;altitude;pressure_sealevel;temperature;humidity
59951;BME280;45812;53.540;9.774;2023-02-28T00:00:19;103144.06;;;4.33;75.63
59951;BME280;45812;53.540;9.774;2023-02-28T00:02:45;103146.63;;;4.35;74.21
59951;BME280;45812;53.540;9.774;2023-02-28T00:05:12;103153.41;;;4.40;74.54
59951;BME280;45812;53.540;9.774;2023-02-28T00:07:38;103149.97;;;4.38;75.74
59951;BME280;45812;53.540;9.774;2023-02-28T00:10:05;103147.41;;;4.37;76.55
59951;BME280;45812;53.540;9.774;2023-02-28T00:12:35;103150.84;;;4.39;76.87
59951;BME280;45812;53.540;9.774;2023-02-28T00:15:01;103140.34;;;4.37;77.45
59951;BME280;45812;53.540;9.774;2023-02-28T00:17:26;103152.69;;;4.37;77.18
59951;BME280;45812;53.540;9.774;2023-02-28T00:19:51;103153.81;;;4.31;75.78
59951;BME280;45812;53.540;9.774;2023-02-28T00:22:18;103157.38;;;4.30;75.13
59951;BME280;45812;53.540;9.774;2023-02-28T00:24:45;103155.66;;;4.29;75.17
59951;BME280;45812;53.540;9.774;2023-02-28T00:27:10;103160.97;;;4.28;76.45
59951;BME280;45812;53.540;9.774;2023-02-28T00:29:36;103161.09;;;4.24;75.73
59951;BME280;45812;53.540;9.774;2023-02-28T00:32:01;103159.25;;;4.26;75.21
59951;BME280;45812;53.540;9.774;2023-02-28T00:34:27;103151.19;;;4.31;76.40
59951;BME280;45812;53.540;9.774;2023-02-28T00:36:52;103150.38;;;4.29;77.52
59951;BME280;45812;53.540;9.774;2023-02-28T00:39:17;103148.47;;;4.33;75.75
59951;BME280;45812;53.540;9.774;2023-02-28T00:41:43;103150.41;;;4.28;75.27
59951;BME280;45812;53.540;9.774;2023-02-28T00:44:08;103156.50;;;4.30;75.80
59951;BME280;45812;53.540;9.774;2023-02-28T00:46:34;103148.59;;;4.30;76.42
59951;BME280;45812;53.540;9.774;2023-02-28T00:48:59;103154.81;;;4.29;76.64
59951;BME280;45812;53.540;9.774;2023-02-28T00:51:24;103168.00;;;4.29;77.31
59951;BME280;45812;53.540;9.774;2023-02-28T00:53:49;103161.97;;;4.25;75.95
59951;BME280;45812;53.540;9.774;2023-02-28T00:56:15;103154.97;;;4.24;77.47
59951;BME280;45812;53.540;9.774;2023-02-28T00:58:40;103162.41;;;4.14;77.38
59951;BME280;45812;53.540;9.774;2023-02-28T01:01:05;103163.63;;;4.06;77.81
59951;BME280;45812;53.540;9.774;2023-02-28T01:03:31;103161.19;;;4.01;77.44
59951;BME280;45812;53.540;9.774;2023-02-28T01:05:56;103161.19;;;4.01;78.45
59951;BME280;45812;53.540;9.774;2023-02-28T01:08:22;103151.66;;;3.99;79.47
59951;BME280;45812;53.540;9.774;2023-02-28T01:10:48;103161.31;;;3.98;79.24
59951;BME280;45812;53.540;9.774;2023-02-28T01:13:14;103155.03;;;3.80;79.63
59951;BME280;45812;53.540;9.774;2023-02-28T01:15:43;103165.94;;;3.93;78.67
59951;BME280;45812;53.540;9.774;2023-02-28T01:18:10;103165.06;;;3.92;78.51
59951;BME280;45812;53.540;9.774;2023-02-28T01:20:38;103170.09;;;3.99;79.30
59951;BME280;45812;53.540;9.774;2023-02-28T01:23:04;103166.66;;;3.97;80.22
59951;BME280;45812;53.540;9.774;2023-02-28T01:25:29;103166.91;;;3.90;79.84
59951;BME280;45812;53.540;9.774;2023-02-28T01:27:54;103170.09;;;3.99;81.09
59951;BME280;45812;53.540;9.774;2023-02-28T01:30:19;103164.88;;;3.97;81.05
59951;BME280;45812;53.540;9.774;2023-02-28T01:32:45;103159.81;;;3.92;80.31
59951;BME280;45812;53.540;9.774;2023-02-28T01:35:10;103167.81;;;3.89;80.45
59951;BME280;45812;53.540;9.774;2023-02-28T01:37:35;103173.22;;;3.86;81.99
59951;BME280;45812;53.540;9.774;2023-02-28T01:40:01;103166.75;;;3.72;83.35
59951;BME280;45812;53.540;9.774;2023-02-28T01:42:26;103160.34;;;3.57;84.19
59951;BME280;45812;53.540;9.774;2023-02-28T01:44:59;103167.28;;;3.36;84.90
59951;BME280;45812;53.540;9.774;2023-02-28T01:47:32;103165.41;;;3.40;86.79
59951;BME280;45812;53.540;9.774;2023-02-28T01:50:01;103160.81;;;3.45;87.20
59951;BME280;45812;53.540;9.774;2023-02-28T01:52:27;103160.75;;;3.46;88.13
59951;BME280;45812;53.540;9.774;2023-02-28T01:54:55;103162.34;;;3.50;87.47
59951;BME280;45812;53.540;9.774;2023-02-28T01:57:28;103156.78;;;3.58;86.81
59951;BME280;45812;53.540;9.774;2023-02-28T01:59:57;103160.88;;;3.43;86.42
59951;BME280;45812;53.540;9.774;2023-02-28T02:02:25;103160.75;;;3.46;86.96
59951;BME280;45812;53.540;9.774;2023-02-28T02:07:20;103167.13;;;3.62;85.61
59951;BME280;45812;53.540;9.774;2023-02-28T02:09:46;103159.16;;;3.64;85.29
59951;BME280;45812;53.540;9.774;2023-02-28T02:15:11;103152.94;;;3.67;84.86
59951;BME280;45812;53.540;9.774;2023-02-28T02:17:44;103161.63;;;3.69;85.27
59951;BME280;45812;53.540;9.774;2023-02-28T02:20:37;103165.75;;;3.52;84.90
59951;BME280;45812;53.540;9.774;2023-02-28T02:26:35;103158.84;;;3.72;82.36
59951;BME280;45812;53.540;9.774;2023-02-28T02:29:36;103154.69;;;3.66;81.67
59951;BME280;45812;53.540;9.774;2023-02-28T02:32:16;103149.38;;;3.68;82.72
59951;BME280;45812;53.540;9.774;2023-02-28T02:35:05;103157.34;;;3.66;82.46
59951;BME280;45812;53.540;9.774;2023-02-28T02:40:16;103151.38;;;3.39;83.06
59951;BME280;45812;53.540;9.774;2023-02-28T02:45:25;103158.75;;;3.29;82.37
59951;BME280;45812;53.540;9.774;2023-02-28T02:47:53;103146.56;;;3.03;83.44
59951;BME280;45812;53.540;9.774;2023-02-28T02:50:30;103153.38;;;2.86;84.49
59951;BME280;45812;53.540;9.774;2023-02-28T02:52:59;103152.28;;;2.91;85.30
59951;BME280;45812;53.540;9.774;2023-02-28T02:55:26;103154.22;;;3.56;79.51
59951;BME280;45812;53.540;9.774;2023-02-28T02:57:59;103146.88;;;3.64;76.90
59951;BME280;45812;53.540;9.774;2023-02-28T03:00:34;103142.38;;;3.67;76.12
59951;BME280;45812;53.540;9.774;2023-02-28T03:03:02;103144.47;;;3.58;76.89
59951;BME280;45812;53.540;9.774;2023-02-28T03:05:56;103152.06;;;3.44;76.97
59951;BME280;45812;53.540;9.774;2023-02-28T03:08:20;103154.00;;;3.39;76.35
59951;BME280;45812;53.540;9.774;2023-02-28T03:11:11;103166.38;;;3.37;76.52
59951;BME280;45812;53.540;9.774;2023-02-28T03:13:59;103158.81;;;3.28;75.84
59951;BME280;45812;53.540;9.774;2023-02-28T03:16:36;103166.03;;;3.23;76.66
59951;BME280;45812;53.540;9.774;2023-02-28T03:24:49;103160.28;;;2.12;82.47
59951;BME280;45812;53.540;9.774;2023-02-28T03:30:10;103169.53;;;1.69;86.54
59951;BME280;45812;53.540;9.774;2023-02-28T03:32:42;103172.78;;;1.49;88.04
59951;BME280;45812;53.540;9.774;2023-02-28T03:35:19;103169.56;;;2.22;84.31
59951;BME280;45812;53.540;9.774;2023-02-28T03:37:48;103170.19;;;2.30;83.76
59951;BME280;45812;53.540;9.774;2023-02-28T03:40:17;103163.44;;;2.23;84.75
59951;BME280;45812;53.540;9.774;2023-02-28T03:42:48;103168.16;;;2.12;85.00
59951;BME280;45812;53.540;9.774;2023-02-28T03:45:26;103168.59;;;1.98;86.27
59951;BME280;45812;53.540;9.774;2023-02-28T03:47:58;103162.81;;;1.89;86.41
59951;BME280;45812;53.540;9.774;2023-02-28T03:50:41;103166.63;;;1.78;86.54
59951;BME280;45812;53.540;9.774;2023-02-28T03:55:47;103175.91;;;1.61;88.09
59951;BME280;45812;53.540;9.774;2023-02-28T04:00:54;103173.84;;;1.42;89.05
59951;BME280;45812;53.540;9.774;2023-02-28T04:03:21;103179.47;;;1.30;90.77
59951;BME280;45812;53.540;9.774;2023-02-28T04:05:51;103186.69;;;1.22;91.36
59951;BME280;45812;53.540;9.774;2023-02-28T04:08:17;103174.66;;;1.15;92.02
59951;BME280;45812;53.540;9.774;2023-02-28T04:10:45;103183.50;;;1.11;91.66
59951;BME280;45812;53.540;9.774;2023-02-28T04:13:13;103180.13;;;1.07;90.61
59951;BME280;45812;53.540;9.774;2023-02-28T04:15:38;103184.72;;;0.99;91.24
59951;BME280;45812;53.540;9.774;2023-02-28T04:18:03;103186.53;;;0.97;91.48
59951;BME280;45812;53.540;9.774;2023-02-28T04:20:28;103175.34;;;0.90;92.13
59951;BME280;45812;53.540;9.774;2023-02-28T04:22:54;103183.25;;;0.89;92.57
59951;BME280;45812;53.540;9.774;2023-02-28T04:25:19;103185.13;;;0.84;92.44
59951;BME280;45812;53.540;9.774;2023-02-28T04:27:44;103180.72;;;0.86;92.52
59951;BME280;45812;53.540;9.774;2023-02-28T04:30:10;103186.78;;;0.88;92.55
59951;BME280;45812;53.540;9.774;2023-02-28T04:32:36;103183.38;;;0.84;92.33
59951;BME280;45812;53.540;9.774;2023-02-28T04:35:01;103191.38;;;0.80;92.84
59951;BME280;45812;53.540;9.774;2023-02-28T04:37:27;103183.59;;;0.77;93.33
59951;BME280;45812;53.540;9.774;2023-02-28T04:39:53;103184.59;;;0.71;94.03
59951;BME280;45812;53.540;9.774;2023-02-28T04:42:19;103184.72;;;0.67;94.38
59951;BME280;45812;53.540;9.774;2023-02-28T04:44:44;103188.38;;;0.61;95.10
59951;BME280;45812;53.540;9.774;2023-02-28T04:47:10;103183.31;;;0.53;95.35
59951;BME280;45812;53.540;9.774;2023-02-28T04:49:35;103178.25;;;0.47;95.51
59951;BME280;45812;53.540;9.774;2023-02-28T04:52:00;103188.91;;;0.41;96.05
59951;BME280;45812;53.540;9.774;2023-02-28T04:54:26;103189.88;;;0.36;96.61
59951;BME280;45812;53.540;9.774;2023-02-28T04:56:51;103192.66;;;0.29;98.04
59951;BME280;45812;53.540;9.774;2023-02-28T04:59:17;103191.00;;;0.27;97.65
59951;BME280;45812;53.540;9.774;2023-02-28T05:01:46;103186.63;;;0.27;97.95
59951;BME280;45812;53.540;9.774;2023-02-28T05:04:11;103191.97;;;0.23;98.49
59951;BME280;45812;53.540;9.774;2023-02-28T05:06:37;103186.81;;;0.20;98.50
59951;BME280;45812;53.540;9.774;2023-02-28T05:09:02;103194.72;;;0.17;98.59
59951;BME280;45812;53.540;9.774;2023-02-28T05:11:32;103194.84;;;0.12;99.78
59951;BME280;45812;53.540;9.774;2023-02-28T05:14:02;103207.19;;;0.07;100.00
59951;BME280;45812;53.540;9.774;2023-02-28T05:16:28;103202.03;;;0.04;100.00
59951;BME280;45812;53.540;9.774;2023-02-28T05:18:53;103201.25;;;0.01;99.93
59951;BME280;45812;53.540;9.774;2023-02-28T05:21:29;103191.75;;;-0.05;99.52
59951;BME280;45812;53.540;9.774;2023-02-28T05:23:57;103205.03;;;-0.13;99.26
59951;BME280;45812;53.540;9.774;2023-02-28T05:26:23;103211.19;;;-0.15;99.53
59951;BME280;45812;53.540;9.774;2023-02-28T05:28:48;103208.34;;;-0.06;98.74
59951;BME280;45812;53.540;9.774;2023-02-28T05:31:14;103206.53;;;-0.03;98.50
59951;BME280;45812;53.540;9.774;2023-02-28T05:33:39;103204.91;;;-0.08;98.61
59951;BME280;45812;53.540;9.774;2023-02-28T05:36:05;103203.31;;;-0.14;98.52
59951;BME280;45812;53.540;9.774;2023-02-28T05:38:30;103208.66;;;-0.18;99.29
59951;BME280;45812;53.540;9.774;2023-02-28T05:40:56;103206.09;;;-0.21;100.00
59951;BME280;45812;53.540;9.774;2023-02-28T05:43:21;103213.06;;;-0.22;100.00
59951;BME280;45812;53.540;9.774;2023-02-28T05:45:46;103213.91;;;-0.20;100.00
59951;BME280;45812;53.540;9.774;2023-02-28T05:48:12;103209.47;;;-0.16;100.00
59951;BME280;45812;53.540;9.774;2023-02-28T05:50:37;103207.69;;;-0.14;100.00
59951;BME280;45812;53.540;9.774;2023-02-28T05:53:03;103212.91;;;-0.14;100.00
59951;BME280;45812;53.540;9.774;2023-02-28T05:55:29;103208.59;;;-0.15;100.00
59951;BME280;45812;53.540;9.774;2023-02-28T05:57:54;103209.53;;;-0.19;100.00
59951;BME280;45812;53.540;9.774;2023-02-28T06:00:21;103215.69;;;-0.22;100.00
59951;BME280;45812;53.540;9.774;2023-02-28T06:02:46;103220.06;;;-0.22;100.00
59951;BME280;45812;53.540;9.774;2023-02-28T06:05:17;103222.72;;;-0.24;100.00
59951;BME280;45812;53.540;9.774;2023-02-28T06:07:43;103222.75;;;-0.25;100.00
59951;BME280;45812;53.540;9.774;2023-02-28T06:10:10;103229.78;;;-0.27;100.00
59951;BME280;45812;53.540;9.774;2023-02-28T06:12:36;103226.31;;;-0.28;100.00
59951;BME280;45812;53.540;9.774;2023-02-28T06:15:01;103219.34;;;-0.29;100.00
59951;BME280;45812;53.540;9.774;2023-02-28T06:17:26;103228.03;;;-0.27;100.00
59951;BME280;45812;53.540;9.774;2023-02-28T06:19:52;103229.78;;;-0.27;100.00
59951;BME280;45812;53.540;9.774;2023-02-28T06:22:17;103231.53;;;-0.28;100.00
59951;BME280;45812;53.540;9.774;2023-02-28T06:24:42;103231.53;;;-0.28;100.00
59951;BME280;45812;53.540;9.774;2023-02-28T06:27:07;103233.34;;;-0.30;100.00
59951;BME280;45812;53.540;9.774;2023-02-28T06:29:34;103228.88;;;-0.26;100.00
59951;BME280;45812;53.540;9.774;2023-02-28T06:31:59;103236.69;;;-0.25;100.00
59951;BME280;45812;53.540;9.774;2023-02-28T06:34:25;103230.47;;;-0.19;100.00
59951;BME280;45812;53.540;9.774;2023-02-28T06:36:50;103237.44;;;-0.20;100.00
59951;BME280;45812;53.540;9.774;2023-02-28T06:39:16;103233.06;;;-0.18;99.88
59951;BME280;45812;53.540;9.774;2023-02-28T06:41:41;103239.13;;;-0.16;100.00
59951;BME280;45812;53.540;9.774;2023-02-28T06:44:15;103239.91;;;-0.12;100.00
59951;BME280;45812;53.540;9.774;2023-02-28T06:46:42;103243.31;;;-0.09;100.00
59951;BME280;45812;53.540;9.774;2023-02-28T06:49:08;103244.13;;;-0.05;100.00
59951;BME280;45812;53.540;9.774;2023-02-28T06:51:35;103242.28;;;-0.02;100.00
59951;BME280;45812;53.540;9.774;2023-02-28T06:54:01;103246.50;;;0.06;100.00
59951;BME280;45812;53.540;9.774;2023-02-28T06:56:26;103247.22;;;0.12;100.00
59951;BME280;45812;53.540;9.774;2023-02-28T06:58:51;103240.09;;;0.19;100.00
59951;BME280;45812;53.540;9.774;2023-02-28T07:01:20;103246.06;;;0.24;99.14
59951;BME280;45812;53.540;9.774;2023-02-28T07:03:46;103247.63;;;0.31;98.69
59951;BME280;45812;53.540;9.774;2023-02-28T07:06:11;103244.84;;;0.39;98.50
59951;BME280;45812;53.540;9.774;2023-02-28T07:08:37;103257.78;;;0.45;97.91
59951;BME280;45812;53.540;9.774;2023-02-28T07:11:03;103248.91;;;0.50;97.64
59951;BME280;45812;53.540;9.774;2023-02-28T07:13:28;103253.09;;;0.59;98.16
59951;BME280;45812;53.540;9.774;2023-02-28T07:16:04;103254.56;;;0.69;96.91
59951;BME280;45812;53.540;9.774;2023-02-28T07:18:31;103261.41;;;0.75;95.86
59951;BME280;45812;53.540;9.774;2023-02-28T07:20:56;103253.31;;;0.84;95.44
59951;BME280;45812;53.540;9.774;2023-02-28T07:23:22;103255.75;;;0.90;94.70
59951;BME280;45812;53.540;9.774;2023-02-28T07:25:48;103258.97;;;1.01;93.94
59951;BME280;45812;53.540;9.774;2023-02-28T07:28:14;103258.78;;;1.07;94.25
59951;BME280;45812;53.540;9.774;2023-02-28T07:30:40;103268.25;;;1.14;93.50
59951;BME280;45812;53.540;9.774;2023-02-28T07:33:05;103264.63;;;1.18;92.68
59951;BME280;45812;53.540;9.774;2023-02-28T07:35:30;103251.38;;;1.23;92.06
59951;BME280;45812;53.540;9.774;2023-02-28T07:37:58;103273.03;;;1.30;91.59
59951;BME280;45812;53.540;9.774;2023-02-28T07:40:24;103263.31;;;1.35;91.36
59951;BME280;45812;53.540;9.774;2023-02-28T07:42:49;103261.41;;;1.40;91.08
59951;BME280;45812;53.540;9.774;2023-02-28T07:45:14;103266.41;;;1.47;91.45
59951;BME280;45812;53.540;9.774;2023-02-28T07:47:41;103264.59;;;1.51;90.95
59951;BME280;45812;53.540;9.774;2023-02-28T07:50:08;103264.38;;;1.59;90.96
59951;BME280;45812;53.540;9.774;2023-02-28T07:52:36;103271.09;;;1.67;89.25
59951;BME280;45812;53.540;9.774;2023-02-28T07:55:01;103264.78;;;1.74;88.44
59951;BME280;45812;53.540;9.774;2023-02-28T07:57:27;103264.53;;;1.82;86.82
59951;BME280;45812;53.540;9.774;2023-02-28T07:59:52;103264.22;;;1.93;86.10
59951;BME280;45812;53.540;9.774;2023-02-28T08:02:18;103270.94;;;2.01;84.76
59951;BME280;45812;53.540;9.774;2023-02-28T08:04:43;103274.19;;;2.11;83.38
59951;BME280;45812;53.540;9.774;2023-02-28T08:07:09;103274.78;;;2.19;83.53
59951;BME280;45812;53.540;9.774;2023-02-28T08:09:38;103275.31;;;2.30;83.90
59951;BME280;45812;53.540;9.774;2023-02-28T08:12:04;103263.56;;;2.42;82.88
59951;BME280;45812;53.540;9.774;2023-02-28T08:14:29;103270.22;;;2.52;83.12
59951;BME280;45812;53.540;9.774;2023-02-28T08:16:54;103267.31;;;2.61;82.05
59951;BME280;45812;53.540;9.774;2023-02-28T08:19:20;103270.47;;;2.71;81.01
59951;BME280;45812;53.540;9.774;2023-02-28T08:21:45;103271.97;;;2.78;80.40
59951;BME280;45812;53.540;9.774;2023-02-28T08:24:10;103269.72;;;2.67;80.11
59951;BME280;45812;53.540;9.774;2023-02-28T08:26:35;103279.59;;;2.61;80.38
59951;BME280;45812;53.540;9.774;2023-02-28T08:29:01;103282.75;;;2.16;83.18
59951;BME280;45812;53.540;9.774;2023-02-28T08:31:26;103284.59;;;2.14;84.21
59951;BME280;45812;53.540;9.774;2023-02-28T08:33:51;103276.16;;;2.03;84.35
59951;BME280;45812;53.540;9.774;2023-02-28T08:36:18;103284.19;;;1.98;84.95
59951;BME280;45812;53.540;9.774;2023-02-28T08:38:45;103279.78;;;1.99;84.08
59951;BME280;45812;53.540;9.774;2023-02-28T08:41:11;103276.56;;;2.19;83.66
59951;BME280;45812;53.540;9.774;2023-02-28T08:43:38;103274.56;;;2.27;83.94
59951;BME280;45812;53.540;9.774;2023-02-28T08:46:04;103279.28;;;2.43;84.45
59951;BME280;45812;53.540;9.774;2023-02-28T08:48:31;103276.38;;;2.51;82.96
59951;BME280;45812;53.540;9.774;2023-02-28T08:50:59;103273.75;;;2.51;83.47
59951;BME280;45812;53.540;9.774;2023-02-28T08:53:25;103271.31;;;2.71;83.14
59951;BME280;45812;53.540;9.774;2023-02-28T08:55:58;103279.50;;;2.89;82.51
59951;BME280;45812;53.540;9.774;2023-02-28T08:58:23;103279.69;;;2.84;82.57
59951;BME280;45812;53.540;9.774;2023-02-28T09:00:50;103281.78;;;2.99;81.87
59951;BME280;45812;53.540;9.774;2023-02-28T09:03:15;103284.34;;;3.26;80.54
59951;BME280;45812;53.540;9.774;2023-02-28T09:05:40;103285.94;;;3.55;80.35
59951;BME280;45812;53.540;9.774;2023-02-28T09:08:05;103285.69;;;4.30;78.67
59951;BME280;45812;53.540;9.774;2023-02-28T09:10:31;103281.78;;;7.23;64.96
59951;BME280;45812;53.540;9.774;2023-02-28T09:12:56;103280.03;;;9.97;52.21
59951;BME280;45812;53.540;9.774;2023-02-28T09:15:21;103275.09;;;12.11;44.54
59951;BME280;45812;53.540;9.774;2023-02-28T09:17:46;103283.16;;;14.49;38.66
59951;BME280;45812;53.540;9.774;2023-02-28T09:20:12;103274.78;;;16.47;33.97
59951;BME280;45812;53.540;9.774;2023-02-28T09:22:38;103278.75;;;18.02;30.94
59951;BME280;45812;53.540;9.774;2023-02-28T09:25:04;103278.72;;;19.01;28.88
59951;BME280;45812;53.540;9.774;2023-02-28T09:27:29;103279.66;;;19.86;27.11
59951;BME280;45812;53.540;9.774;2023-02-28T09:29:54;103273.94;;;20.55;26.45
59951;BME280;45812;53.540;9.774;2023-02-28T09:32:19;103281.91;;;20.65;26.39
59951;BME280;45812;53.540;9.774;2023-02-28T09:34:45;103280.53;;;20.85;26.52
59951;BME280;45812;53.540;9.774;2023-02-28T09:37:10;103286.56;;;21.84;26.16
59951;BME280;45812;53.540;9.774;2023-02-28T09:39:35;103283.00;;;23.06;24.53
59951;BME280;45812;53.540;9.774;2023-02-28T09:42:02;103274.28;;;23.84;23.26
59951;BME280;45812;53.540;9.774;2023-02-28T09:44:40;103280.22;;;24.09;22.33
59951;BME280;45812;53.540;9.774;2023-02-28T09:47:17;103280.53;;;23.99;22.65
59951;BME280;45812;53.540;9.774;2023-02-28T09:49:46;103278.75;;;24.98;21.56
59951;BME280;45812;53.540;9.774;2023-02-28T09:52:17;103278.13;;;25.65;19.37
59951;BME280;45812;53.540;9.774;2023-02-28T09:54:44;103293.81;;;25.98;18.18
59951;BME280;45812;53.540;9.774;2023-02-28T09:57:39;103287.06;;;26.62;18.11
59951;BME280;45812;53.540;9.774;2023-02-28T10:00:17;103288.50;;;26.51;17.28
59951;BME280;45812;53.540;9.774;2023-02-28T10:05:17;103287.84;;;27.35;18.44
59951;BME280;45812;53.540;9.774;2023-02-28T10:10:39;103285.22;;;28.11;15.50
59951;BME280;45812;53.540;9.774;2023-02-28T10:13:12;103287.13;;;28.04;14.56
59951;BME280;45812;53.540;9.774;2023-02-28T10:15:40;103282.81;;;28.21;14.46
59951;BME280;45812;53.540;9.774;2023-02-28T10:18:11;103282.75;;;28.66;14.60
59951;BME280;45812;53.540;9.774;2023-02-28T10:20:39;103277.63;;;29.19;14.61
59951;BME280;45812;53.540;9.774;2023-02-28T10:23:17;103274.84;;;29.38;14.10
59951;BME280;45812;53.540;9.774;2023-02-28T10:25:50;103278.78;;;29.48;13.69
59951;BME280;45812;53.540;9.774;2023-02-28T10:28:17;103275.69;;;29.75;13.16
59951;BME280;45812;53.540;9.774;2023-02-28T10:30:50;103279.38;;;29.69;13.33
59951;BME280;45812;53.540;9.774;2023-02-28T10:33:28;103270.94;;;30.00;12.98
59951;BME280;45812;53.540;9.774;2023-02-28T10:35:54;103274.34;;;30.79;12.46
59951;BME280;45812;53.540;9.774;2023-02-28T10:38:26;103273.25;;;31.15;12.32
59951;BME280;45812;53.540;9.774;2023-02-28T10:41:03;103272.22;;;31.68;12.01
59951;BME280;45812;53.540;9.774;2023-02-28T10:43:29;103270.72;;;32.17;12.18
59951;BME280;45812;53.540;9.774;2023-02-28T10:46:04;103274.38;;;31.66;12.55
59951;BME280;45812;53.540;9.774;2023-02-28T10:48:39;103264.66;;;31.75;13.22
59951;BME280;45812;53.540;9.774;2023-02-28T10:51:12;103271.84;;;32.05;12.76
59951;BME280;45812;53.540;9.774;2023-02-28T10:53:45;103262.47;;;31.89;13.54
59951;BME280;45812;53.540;9.774;2023-02-28T10:58:57;103262.53;;;32.90;13.03
59951;BME280;45812;53.540;9.774;2023-02-28T11:01:34;103270.13;;;33.38;12.34
59951;BME280;45812;53.540;9.774;2023-02-28T11:04:00;103265.72;;;34.13;11.98
59951;BME280;45812;53.540;9.774;2023-02-28T11:06:31;103272.09;;;34.40;11.79
59951;BME280;45812;53.540;9.774;2023-02-28T11:09:00;103273.84;;;34.88;11.66
59951;BME280;45812;53.540;9.774;2023-02-28T11:11:28;103270.16;;;35.25;10.83
59951;BME280;45812;53.540;9.774;2023-02-28T11:13:57;103271.00;;;35.26;11.12
59951;BME280;45812;53.540;9.774;2023-02-28T11:16:32;103268.06;;;35.42;10.61
59951;BME280;45812;53.540;9.774;2023-02-28T11:18:58;103260.94;;;35.72;10.14
59951;BME280;45812;53.540;9.774;2023-02-28T11:21:27;103266.00;;;36.26;9.75
59951;BME280;45812;53.540;9.774;2023-02-28T11:24:44;103266.06;;;36.46;9.69
59951;BME280;45812;53.540;9.774;2023-02-28T11:26:48;103263.75;;;36.79;9.65
59951;BME280;45812;53.540;9.774;2023-02-28T11:29:26;103263.50;;;36.85;9.25
59951;BME280;45812;53.540;9.774;2023-02-28T11:32:16;103260.44;;;36.72;9.50
59951;BME280;45812;53.540;9.774;2023-02-28T11:34:44;103262.69;;;36.08;9.83
59951;BME280;45812;53.540;9.774;2023-02-28T11:37:16;103258.81;;;36.50;9.54
59951;BME280;45812;53.540;9.774;2023-02-28T11:39:43;103249.66;;;36.65;9.50
59951;BME280;45812;53.540;9.774;2023-02-28T11:53:31;103237.22;;;37.37;8.82
59951;BME280;45812;53.540;9.774;2023-02-28T11:56:19;103228.28;;;37.95;8.00
59951;BME280;45812;53.540;9.774;2023-02-28T11:59:12;103223.59;;;37.41;7.97
59951;BME280;45812;53.540;9.774;2023-02-28T12:02:04;103226.44;;;37.20;8.06
59951;BME280;45812;53.540;9.774;2023-02-28T12:07:14;103215.69;;;38.02;7.92
59951;BME280;45812;53.540;9.774;2023-02-28T12:12:23;103209.69;;;37.85;8.14
59951;BME280;45812;53.540;9.774;2023-02-28T12:15:05;103205.44;;;36.94;8.14
59951;BME280;45812;53.540;9.774;2023-02-28T12:17:54;103204.66;;;35.66;8.79
59951;BME280;45812;53.540;9.774;2023-02-28T12:20:49;103189.44;;;34.44;8.93
59951;BME280;45812;53.540;9.774;2023-02-28T12:23:30;103185.97;;;31.79;10.13
59951;BME280;45812;53.540;9.774;2023-02-28T12:26:05;103179.97;;;32.83;9.53
59951;BME280;45812;53.540;9.774;2023-02-28T12:28:37;103184.84;;;32.59;9.91
59951;BME280;45812;53.540;9.774;2023-02-28T12:31:14;103176.81;;;33.40;9.48
59951;BME280;45812;53.540;9.774;2023-02-28T12:33:48;103167.63;;;35.05;8.70
59951;BME280;45812;53.540;9.774;2023-02-28T12:36:17;103172.81;;;35.79;8.59
59951;BME280;45812;53.540;9.774;2023-02-28T12:39:03;103164.22;;;36.21;8.42
59951;BME280;45812;53.540;9.774;2023-02-28T12:41:39;103160.69;;;37.06;7.69
59951;BME280;45812;53.540;9.774;2023-02-28T12:44:17;103164.88;;;37.52;6.89
59951;BME280;45812;53.540;9.774;2023-02-28T12:46:57;103153.34;;;37.69;7.16
59951;BME280;45812;53.540;9.774;2023-02-28T12:49:38;103148.47;;;37.95;6.88
59951;BME280;45812;53.540;9.774;2023-02-28T12:52:05;103156.34;;;38.12;7.15
59951;BME280;45812;53.540;9.774;2023-02-28T12:54:42;103145.97;;;38.23;6.88
59951;BME280;45812;53.540;9.774;2023-02-28T12:59:57;103141.25;;;38.95;7.03
59951;BME280;45812;53.540;9.774;2023-02-28T13:05:03;103132.06;;;38.94;6.81
59951;BME280;45812;53.540;9.774;2023-02-28T13:10:09;103127.53;;;38.56;7.22
59951;BME280;45812;53.540;9.774;2023-02-28T13:12:35;103135.28;;;38.59;7.11
59951;BME280;45812;53.540;9.774;2023-02-28T13:15:25;103132.78;;;38.81;7.03
59951;BME280;45812;53.540;9.774;2023-02-28T13:17:55;103123.81;;;39.08;7.07
59951;BME280;45812;53.540;9.774;2023-02-28T13:20:47;103114.34;;;38.85;6.70
59951;BME280;45812;53.540;9.774;2023-02-28T13:23:40;103110.94;;;39.12;6.80
59951;BME280;45812;53.540;9.774;2023-02-28T13:26:06;103111.06;;;39.21;6.96
59951;BME280;45812;53.540;9.774;2023-02-28T13:31:15;103106.63;;;39.20;6.89
59951;BME280;45812;53.540;9.774;2023-02-28T13:36:26;103098.19;;;39.06;6.75
59951;BME280;45812;53.540;9.774;2023-02-28T13:38:52;103098.16;;;39.11;6.78
59951;BME280;45812;53.540;9.774;2023-02-28T13:41:41;103101.97;;;39.34;7.04
59951;BME280;45812;53.540;9.774;2023-02-28T13:44:20;103100.53;;;39.36;6.56
59951;BME280;45812;53.540;9.774;2023-02-28T13:49:25;103102.25;;;38.52;7.00
59951;BME280;45812;53.540;9.774;2023-02-28T13:51:55;103100.28;;;38.76;6.94
59951;BME280;45812;53.540;9.774;2023-02-28T13:57:53;103086.91;;;38.31;6.69
59951;BME280;45812;53.540;9.774;2023-02-28T14:06:30;103087.75;;;35.85;7.20
59951;BME280;45812;53.540;9.774;2023-02-28T14:09:00;103092.97;;;33.24;8.68
59951;BME280;45812;53.540;9.774;2023-02-28T14:11:30;103099.06;;;34.59;8.39
59951;BME280;45812;53.540;9.774;2023-02-28T14:13:56;103096.88;;;35.39;8.00
59951;BME280;45812;53.540;9.774;2023-02-28T14:16:27;103095.47;;;35.37;7.82
59951;BME280;45812;53.540;9.774;2023-02-28T14:18:58;103097.56;;;33.67;9.00
59951;BME280;45812;53.540;9.774;2023-02-28T14:21:27;103093.34;;;34.29;8.85
59951;BME280;45812;53.540;9.774;2023-02-28T14:26:56;103096.91;;;34.77;8.25